Time;durP1;ratioP1;P1;durP2;ratioP2;P2;SDS_P1;SDS_P2;PMS_P1;PMS_P2;Temp;Humidity;BMP_temperature;BMP_pressure;BME280_temperature;BME280_humidity;BME280_pressure;Samples;Min_cycle;Max_cycle;Signal;HPM_P1;HPM_P2
2022/07/04 00:02:21;;;;;;;;;;;;;;;14.62;100.00;102014.56;5010379;28;19921;-58
2022/07/04 00:04:47;;;;;;;;;;;;;;;14.62;100.00;102014.56;4995470;28;19929;-58
2022/07/04 00:07:12;;;;;;;;;;;;;;;14.61;100.00;102017.28;4995408;28;19910;-59
2022/07/04 00:09:37;;;;;;;;;;;;;;;14.59;100.00;102022.66;4993940;28;19913;-59
2022/07/04 00:12:02;;;;;;;;;;;;;;;14.54;100.00;102014.88;4995082;28;19921;-59
2022/07/04 00:14:28;;;;;;;;;;;;;;;14.51;100.00;102016.81;4995272;28;20036;-60
2022/07/04 00:16:53;;;;;;;;;;;;;;;14.48;100.00;102012.47;4995072;28;19971;-59
2022/07/04 00:19:18;;;;;;;;;;;;;;;14.47;100.00;102007.22;4995255;28;19913;-59
2022/07/04 00:21:44;;;;;;;;;;;;;;;14.46;100.00;102016.13;4995093;28;19939;-59
2022/07/04 00:24:09;;;;;;;;;;;;;;;14.44;100.00;102010.88;4993800;28;20293;-59
2022/07/04 00:26:34;;;;;;;;;;;;;;;14.40;100.00;102002.16;4995134;28;20432;-59
2022/07/04 00:29:00;;;;;;;;;;;;;;;14.38;100.00;102003.13;4994802;28;20372;-58
2022/07/04 00:31:25;;;;;;;;;;;;;;;14.38;100.00;101993.34;4994837;28;19913;-59
2022/07/04 00:33:50;;;;;;;;;;;;;;;14.38;100.00;101997.81;4994885;28;19924;-59
2022/07/04 00:36:15;;;;;;;;;;;;;;;14.35;100.00;101998.81;4995022;28;20381;-59
2022/07/04 00:38:40;;;;;;;;;;;;;;;14.35;100.00;101997.97;4994881;28;19914;-59
2022/07/04 00:41:06;;;;;;;;;;;;;;;14.33;100.00;101992.66;4994517;28;19956;-59
2022/07/04 00:43:32;;;;;;;;;;;;;;;14.30;100.00;101994.63;4994737;28;19918;-57
2022/07/04 00:45:57;;;;;;;;;;;;;;;14.28;100.00;101983.16;4994633;28;19936;-57
2022/07/04 00:48:22;;;;;;;;;;;;;;;14.27;100.00;101984.94;4994932;28;19914;-57
2022/07/04 00:50:48;;;;;;;;;;;;;;;14.28;100.00;101993.81;4993226;28;19914;-57
2022/07/04 00:53:18;;;;;;;;;;;;;;;14.24;100.00;101990.41;4994481;28;19918;-59
2022/07/04 00:55:44;;;;;;;;;;;;;;;14.22;100.00;102001.13;4994515;28;19917;-57
2022/07/04 00:58:12;;;;;;;;;;;;;;;14.21;100.00;101991.38;4994452;28;19917;-58
2022/07/04 01:00:37;;;;;;;;;;;;;;;14.19;100.00;101993.25;4994005;28;19913;-59
2022/07/04 01:03:03;;;;;;;;;;;;;;;14.18;100.00;101988.88;4994168;28;19940;-59
2022/07/04 01:05:28;;;;;;;;;;;;;;;14.17;100.00;101984.47;4994211;28;19976;-60
2022/07/04 01:07:54;;;;;;;;;;;;;;;14.18;100.00;101990.66;4994413;28;19944;-60
2022/07/04 01:10:19;;;;;;;;;;;;;;;14.17;100.00;101984.47;4993070;28;19917;-60
2022/07/04 01:12:44;;;;;;;;;;;;;;;14.15;100.00;101986.31;4993993;28;19914;-58
2022/07/04 01:15:10;;;;;;;;;;;;;;;14.13;100.00;101987.31;4993931;28;19918;-59
2022/07/04 01:17:35;;;;;;;;;;;;;;;14.10;100.00;101977.66;4994085;28;19914;-58
2022/07/04 01:20:01;;;;;;;;;;;;;;;14.11;100.00;101975.88;4993825;28;19993;-58
2022/07/04 01:22:26;;;;;;;;;;;;;;;14.08;100.00;101977.72;4993981;28;19988;-58
2022/07/04 01:24:51;;;;;;;;;;;;;;;14.09;100.00;101975.91;4993915;28;19914;-59
2022/07/04 01:27:16;;;;;;;;;;;;;;;14.08;100.00;101977.72;4994031;28;19913;-59
2022/07/04 01:29:42;;;;;;;;;;;;;;;14.05;100.00;101966.31;4993719;28;20333;-58
2022/07/04 01:32:07;;;;;;;;;;;;;;;14.04;100.00;101969.91;4993582;28;20325;-58
2022/07/04 01:34:33;;;;;;;;;;;;;;;14.04;100.00;101970.78;4993692;28;19921;-58
2022/07/04 01:36:59;;;;;;;;;;;;;;;14.02;100.00;101972.63;4993647;28;19909;-58
2022/07/04 01:39:25;;;;;;;;;;;;;;;14.04;100.00;101977.91;4994000;28;19910;-59
2022/07/04 01:41:50;;;;;;;;;;;;;;;14.00;100.00;101970.97;4993076;28;19914;-58
2022/07/04 01:44:15;;;;;;;;;;;;;;;13.95;100.00;101971.16;5008480;28;20041;-59
2022/07/04 01:46:41;;;;;;;;;;;;;;;13.93;100.00;101967.69;4993499;28;20016;-57
2022/07/04 01:49:06;;;;;;;;;;;;;;;13.92;100.00;101972.13;4993485;28;19920;-58
2022/07/04 01:51:31;;;;;;;;;;;;;;;13.92;100.00;101968.63;4993267;28;19956;-58
2022/07/04 01:53:56;;;;;;;;;;;;;;;13.92;100.00;101968.63;4992077;28;19964;-59
2022/07/04 01:56:22;;;;;;;;;;;;;;;13.90;100.00;101966.03;4993717;28;19909;-59
2022/07/04 01:58:47;;;;;;;;;;;;;;;13.90;100.00;101965.16;4993350;28;19910;-58
2022/07/04 02:01:30;;;;;;;;;;;;;;;13.89;100.00;101972.28;4993054;28;20285;-59
2022/07/04 02:03:56;;;;;;;;;;;;;;;13.86;100.00;101961.75;4993172;28;20000;-59
2022/07/04 02:06:21;;;;;;;;;;;;;;;13.86;100.00;101961.75;4993633;28;20354;-58
2022/07/04 02:13:00;;;;;;;;;;;;;;;13.86;100.00;101959.09;4993247;28;19920;-58
2022/07/04 02:14:15;;;;;;;;;;;;;;;13.86;100.00;101960.88;4992975;28;19972;-58
2022/07/04 02:16:40;;;;;;;;;;;;;;;13.85;100.00;101957.38;4993186;28;19914;-59
2022/07/04 02:19:06;;;;;;;;;;;;;;;13.84;100.00;101958.28;4992943;28;20285;-59
2022/07/04 02:21:31;;;;;;;;;;;;;;;13.89;100.00;101958.13;4992945;28;19964;-58
2022/07/04 02:23:56;;;;;;;;;;;;;;;13.90;100.00;101960.72;4992870;28;19913;-59
2022/07/04 02:26:22;;;;;;;;;;;;;;;13.90;100.00;101958.03;5008291;28;19913;-59
2022/07/04 02:28:47;;;;;;;;;;;;;;;13.89;100.00;101958.97;4993077;28;20285;-59
2022/07/04 02:31:12;;;;;;;;;;;;;;;13.91;100.00;101961.56;4992753;28;19956;-59
2022/07/04 02:33:37;;;;;;;;;;;;;;;13.94;100.00;101961.44;4992685;28;19940;-59
2022/07/04 02:36:03;;;;;;;;;;;;;;;13.95;100.00;101957.84;4992813;28;19918;-60
2022/07/04 02:38:28;;;;;;;;;;;;;;;13.97;100.00;101960.47;4992948;28;19910;-58
2022/07/04 02:40:53;;;;;;;;;;;;;;;13.96;100.00;101962.22;4992925;28;19918;-59
2022/07/04 02:43:18;;;;;;;;;;;;;;;13.99;100.00;101958.56;4992644;28;19960;-59
2022/07/04 02:45:44;;;;;;;;;;;;;;;13.97;100.00;101958.66;4992788;28;19914;-58
2022/07/04 02:48:10;;;;;;;;;;;;;;;13.97;100.00;101963.13;4992775;28;19916;-59
2022/07/04 02:50:35;;;;;;;;;;;;;;;13.96;100.00;101954.25;4992760;28;19913;-59
2022/07/04 02:53:00;;;;;;;;;;;;;;;13.97;100.00;101960.47;4992599;28;19914;-59
2022/07/04 02:55:25;;;;;;;;;;;;;;;13.96;100.00;101953.41;4995779;28;20117;-58
2022/07/04 02:57:50;;;;;;;;;;;;;;;13.96;100.00;101956.91;5011819;28;19914;-59
2022/07/04 03:00:16;;;;;;;;;;;;;;;13.93;100.00;101960.56;4996910;28;20009;-59
2022/07/04 03:02:41;;;;;;;;;;;;;;;13.92;100.00;101960.63;4996378;28;19917;-59
2022/07/04 03:05:06;;;;;;;;;;;;;;;13.95;100.00;101970.28;5011387;28;20393;-59
2022/07/04 03:07:32;;;;;;;;;;;;;;;13.97;100.00;101957.78;4996570;28;19914;-60
2022/07/04 03:09:57;;;;;;;;;;;;;;;13.97;100.00;101960.47;5011534;28;20358;-59
2022/07/04 03:12:22;;;;;;;;;;;;;;;13.99;100.00;101955.91;4996268;28;19972;-59
2022/07/04 03:14:47;;;;;;;;;;;;;;;14.01;100.00;101967.38;4996241;28;19990;-60
2022/07/04 03:17:13;;;;;;;;;;;;;;;14.00;100.00;101963.88;4996276;28;19913;-59
2022/07/04 03:19:38;;;;;;;;;;;;;;;14.02;100.00;101969.13;5011368;28;19914;-59
2022/07/04 03:22:03;;;;;;;;;;;;;;;14.02;100.00;101972.63;4996013;28;19914;-59
2022/07/04 03:24:29;;;;;;;;;;;;;;;14.00;100.00;101969.19;4996253;28;19914;-58
2022/07/04 03:26:54;;;;;;;;;;;;;;;13.98;100.00;101971.03;4996248;28;19928;-59
2022/07/04 03:29:19;;;;;;;;;;;;;;;13.96;100.00;101972.88;4996088;28;19914;-59
2022/07/04 03:31:44;;;;;;;;;;;;;;;13.95;100.00;101970.28;4994774;28;19914;-59
2022/07/04 03:34:10;;;;;;;;;;;;;;;13.94;100.00;101958.78;4995729;28;19918;-59
2022/07/04 03:36:35;;;;;;;;;;;;;;;13.95;100.00;101964.97;4995983;28;19913;-60
2022/07/04 03:39:00;;;;;;;;;;;;;;;13.96;100.00;101958.72;4995928;28;19980;-58
2022/07/04 03:41:26;;;;;;;;;;;;;;;13.99;100.00;101963.91;5011075;28;19982;-58
2022/07/04 03:43:51;;;;;;;;;;;;;;;14.02;100.00;101966.47;4995794;28;20361;-59
2022/07/04 03:46:16;;;;;;;;;;;;;;;14.06;100.00;101976.91;4995645;28;20373;-58
2022/07/04 03:48:43;;;;;;;;;;;;;;;14.07;100.00;101964.47;5010893;28;19920;-58
2022/07/04 03:51:08;;;;;;;;;;;;;;;14.11;100.00;101967.88;4995537;28;19914;-60
2022/07/04 03:53:33;;;;;;;;;;;;;;;14.12;100.00;101966.91;4995611;28;19960;-59
2022/07/04 03:55:59;;;;;;;;;;;;;;;14.14;100.00;101981.06;4995471;28;20012;-57
2022/07/04 03:58:24;;;;;;;;;;;;;;;14.17;100.00;101983.59;4994472;28;20344;-58
2022/07/04 04:00:49;;;;;;;;;;;;;;;14.22;100.00;101982.47;4995530;28;19925;-59
2022/07/04 04:05:59;;;;;;;;;;;;;;;14.29;100.00;101984.88;4994773;28;20009;-59
2022/07/04 04:08:24;;;;;;;;;;;;;;;14.31;100.00;101988.34;4995382;28;19941;-59
2022/07/04 04:10:51;;;;;;;;;;;;;;;14.29;100.00;101993.72;4995415;28;19957;-58
2022/07/04 04:13:16;;;;;;;;;;;;;;;14.26;100.00;101991.22;4995060;28;19909;-58
2022/07/04 04:15:41;;;;;;;;;;;;;;;14.30;100.00;101987.47;4995135;28;20278;-58
2022/07/04 04:18:06;;;;;;;;;;;;;;;14.32;100.00;101988.28;5010167;28;19914;-58
2022/07/04 04:20:32;;;;;;;;;;;;;;;14.35;100.00;101989.97;4995217;28;19921;-61
2022/07/04 04:22:57;;;;;;;;;;;;;;;14.35;100.00;101988.16;4994955;28;20004;-59
2022/07/04 04:25:22;;;;;;;;;;;;;;;14.35;100.00;101990.81;4995242;28;20371;-58
2022/07/04 04:27:47;;;;;;;;;;;;;;;14.38;100.00;101996.00;5010187;28;20325;-59
2022/07/04 04:30:13;;;;;;;;;;;;;;;14.40;100.00;101990.63;4995273;28;19981;-59
2022/07/04 04:32:38;;;;;;;;;;;;;;;14.42;100.00;101994.97;4994850;28;20386;-59
2022/07/04 04:35:03;;;;;;;;;;;;;;;14.47;100.00;101992.09;5009570;28;19917;-59
2022/07/04 04:37:29;;;;;;;;;;;;;;;14.55;100.00;101991.75;5010102;28;19920;-59
2022/07/04 04:39:54;;;;;;;;;;;;;;;14.64;100.00;101994.06;4993500;28;19909;-58
2022/07/04 04:42:19;;;;;;;;;;;;;;;14.72;100.00;101999.94;4994454;28;19914;-58
2022/07/04 04:44:44;;;;;;;;;;;;;;;14.81;100.00;102001.31;4994553;28;19919;-59
2022/07/04 04:47:10;;;;;;;;;;;;;;;14.87;100.00;102010.84;4994595;28;19913;-59
2022/07/04 04:49:35;;;;;;;;;;;;;;;14.98;100.00;102013.03;4994586;28;19929;-59
2022/07/04 04:52:00;;;;;;;;;;;;;;;15.13;100.00;102023.03;4994180;28;19914;-59
2022/07/04 04:54:25;;;;;;;;;;;;;;;15.35;100.00;102022.91;4994270;28;19918;-58
2022/07/04 04:56:51;;;;;;;;;;;;;;;15.50;100.00;102028.44;4994333;28;20348;-59
2022/07/04 04:59:16;;;;;;;;;;;;;;;15.63;100.00;102031.44;4992976;28;19964;-59
2022/07/04 05:01:41;;;;;;;;;;;;;;;15.72;100.00;102026.50;4994421;28;19914;-58
2022/07/04 05:04:07;;;;;;;;;;;;;;;15.81;100.00;102035.03;4993899;28;19913;-59
2022/07/04 05:06:32;;;;;;;;;;;;;;;15.87;100.00;102030.28;4992905;28;19918;-59
2022/07/04 05:08:57;;;;;;;;;;;;;;;15.93;100.00;102034.47;4994377;28;20405;-58
2022/07/04 05:11:22;;;;;;;;;;;;;;;16.01;100.00;102034.09;4994153;28;19910;-59
2022/07/04 05:13:47;;;;;;;;;;;;;;;16.12;100.00;102038.91;4992744;28;19913;-60
2022/07/04 05:16:13;;;;;;;;;;;;;;;16.17;100.00;102024.38;4993482;28;20066;-59
2022/07/04 05:18:38;;;;;;;;;;;;;;;16.27;100.00;102037.31;4993698;28;19914;-59
2022/07/04 05:21:03;;;;;;;;;;;;;;;16.35;100.00;102032.44;4993842;28;20330;-59
2022/07/04 05:23:28;;;;;;;;;;;;;;;16.40;100.00;102043.75;4993992;28;20329;-59
2022/07/04 05:25:54;;;;;;;;;;;;;;;16.44;100.00;102036.44;4993668;28;19917;-59
2022/07/04 05:28:19;;;;;;;;;;;;;;;16.57;100.00;102036.69;4992639;28;19949;-59
2022/07/04 05:30:44;;;;;;;;;;;;;;;16.68;100.00;102031.66;4992653;28;20329;-59
2022/07/04 05:33:09;;;;;;;;;;;;;;;16.77;100.00;102033.84;4992130;28;20274;-60
2022/07/04 05:35:35;;;;;;;;;;;;;;;16.87;100.00;102034.25;4993386;28;19924;-59
2022/07/04 05:38:01;;;;;;;;;;;;;;;16.87;100.00;102026.22;4993514;28;19914;-60
2022/07/04 05:40:26;;;;;;;;;;;;;;;16.78;100.00;102035.59;4992470;28;19937;-59
2022/07/04 05:42:51;;;;;;;;;;;;;;;16.70;100.00;102029.75;4992059;28;19921;-60
2022/07/04 05:45:16;;;;;;;;;;;;;;;16.64;100.00;102033.63;4992172;28;20408;-59
2022/07/04 05:47:42;;;;;;;;;;;;;;;16.63;100.00;102029.22;4993310;28;19981;-59
2022/07/04 05:50:07;;;;;;;;;;;;;;;16.59;100.00;102027.66;4993467;28;19913;-59
2022/07/04 05:52:32;;;;;;;;;;;;;;;16.61;100.00;102023.09;4993072;28;19913;-59
2022/07/04 05:54:57;;;;;;;;;;;;;;;16.64;100.00;102024.75;4993260;28;20271;-60
2022/07/04 05:57:23;;;;;;;;;;;;;;;16.64;100.00;102030.94;4993252;28;20000;-59
2022/07/04 05:59:49;;;;;;;;;;;;;;;16.65;100.00;102026.44;5008285;28;19913;-61
2022/07/04 06:02:15;;;;;;;;;;;;;;;16.65;100.00;102022.00;4993224;28;20289;-60
2022/07/04 06:04:40;;;;;;;;;;;;;;;16.71;100.00;102023.47;4992845;28;19948;-59
2022/07/04 06:07:05;;;;;;;;;;;;;;;16.72;100.00;102014.50;4992988;28;19949;-60
2022/07/04 06:09:30;;;;;;;;;;;;;;;16.76;100.00;102020.56;4993517;28;19917;-60
2022/07/04 06:11:56;;;;;;;;;;;;;;;16.83;100.00;102011.28;5008114;28;20430;-59
2022/07/04 06:14:21;;;;;;;;;;;;;;;16.82;100.00;102014.91;4992628;28;20353;-58
2022/07/04 06:16:46;;;;;;;;;;;;;;;16.84;100.00;102015.66;4993287;28;20379;-58
2022/07/04 06:19:12;;;;;;;;;;;;;;;16.96;100.00;102019.56;4992904;28;20352;-58
2022/07/04 06:21:37;;;;;;;;;;;;;;;17.00;100.00;102007.72;5007997;28;20349;-58
2022/07/04 06:24:03;;;;;;;;;;;;;;;17.08;100.00;102016.19;4992554;28;19949;-58
2022/07/04 06:26:28;;;;;;;;;;;;;;;17.14;100.00;102013.19;4993023;28;19971;-58
2022/07/04 06:28:53;;;;;;;;;;;;;;;17.26;100.00;102006.31;4992703;28;20008;-58
2022/07/04 06:31:18;;;;;;;;;;;;;;;17.36;100.00;102004.84;4992397;28;19910;-58
2022/07/04 06:36:28;;;;;;;;;;;;;;;17.50;100.00;102000.56;4993088;28;19980;-58
2022/07/04 06:38:53;;;;;;;;;;;;;;;17.60;100.00;102011.63;4992797;28;20390;-58
2022/07/04 06:41:18;;;;;;;;;;;;;;;17.67;100.00;102004.97;4992607;28;19916;-59
2022/07/04 06:43:44;;;;;;;;;;;;;;;17.60;97.69;102012.50;4992487;28;19914;-58
2022/07/04 06:46:09;;;;;;;;;;;;;;;17.51;92.96;102008.50;4992451;28;19914;-59
2022/07/04 06:48:34;;;;;;;;;;;;;;;17.56;90.89;102021.66;4991769;28;20001;-59
2022/07/04 06:51:00;;;;;;;;;;;;;;;17.50;92.50;102022.84;4992350;28;19917;-59
2022/07/04 06:53:25;;;;;;;;;;;;;;;17.52;93.90;102034.34;4992885;28;19910;-59
2022/07/04 06:55:50;;;;;;;;;;;;;;;17.65;93.01;102047.91;4992326;28;19995;-59
2022/07/04 06:58:15;;;;;;;;;;;;;;;17.73;92.51;102041.28;4992324;28;20328;-59
2022/07/04 07:00:41;;;;;;;;;;;;;;;17.78;91.79;102036.53;5007538;28;19929;-59
2022/07/04 07:03:06;;;;;;;;;;;;;;;17.83;90.59;102031.78;4992526;28;19909;-58
2022/07/04 07:05:32;;;;;;;;;;;;;;;17.91;89.71;102028.66;4992324;28;20343;-58
2022/07/04 07:07:58;;;;;;;;;;;;;;;17.99;88.65;102027.31;4992733;28;20040;-59
2022/07/04 07:10:23;;;;;;;;;;;;;;;17.96;89.88;102023.94;4992430;28;19961;-58
2022/07/04 07:12:48;;;;;;;;;;;;;;;18.03;89.21;102022.63;4991998;28;19914;-59
2022/07/04 07:15:13;;;;;;;;;;;;;;;18.12;88.06;102016.72;4992105;28;20362;-59
2022/07/04 07:17:39;;;;;;;;;;;;;;;18.12;87.98;102022.09;4992427;28;19956;-58
2022/07/04 07:20:05;;;;;;;;;;;;;;;18.20;88.97;102016.28;4992272;28;19937;-58
2022/07/04 07:22:30;;;;;;;;;;;;;;;18.26;87.37;102023.09;4991092;28;19956;-58
2022/07/04 07:24:55;;;;;;;;;;;;;;;18.30;85.94;102030.00;4991301;28;19920;-58
2022/07/04 07:27:20;;;;;;;;;;;;;;;18.39;86.46;102032.16;4974764;28;19924;-58
2022/07/04 07:29:46;;;;;;;;;;;;;;;18.50;84.80;102035.06;4992354;28;19913;-58
2022/07/04 07:32:11;;;;;;;;;;;;;;;18.50;85.56;102029.72;4991878;28;19997;-59
2022/07/04 07:34:36;;;;;;;;;;;;;;;18.46;86.14;102028.13;4992153;28;19976;-60
2022/07/04 07:37:02;;;;;;;;;;;;;;;18.45;87.20;102034.47;4991776;28;19956;-59
2022/07/04 07:39:27;;;;;;;;;;;;;;;18.47;86.10;102026.34;4992488;28;19914;-58
2022/07/04 07:41:52;;;;;;;;;;;;;;;18.56;86.35;102027.63;4995549;28;19910;-59
2022/07/04 07:44:18;;;;;;;;;;;;;;;18.66;84.43;102029.63;4995683;28;19956;-59
2022/07/04 07:46:43;;;;;;;;;;;;;;;18.73;84.67;102034.63;4994430;28;19914;-59
2022/07/04 07:49:08;;;;;;;;;;;;;;;18.84;81.92;102034.84;4995538;28;20048;-59
2022/07/04 07:51:34;;;;;;;;;;;;;;;19.01;82.04;102049.09;5010563;28;20012;-58
2022/07/04 07:53:59;;;;;;;;;;;;;;;19.09;79.11;102052.16;4995672;28;20004;-58
2022/07/04 07:56:24;;;;;;;;;;;;;;;19.29;79.35;102050.94;4995690;28;19956;-60
2022/07/04 07:58:50;;;;;;;;;;;;;;;19.76;78.90;102048.88;4995493;28;19910;-59
2022/07/04 08:01:15;;;;;;;;;;;;;;;20.16;74.10;102040.91;4995321;28;19905;-60
2022/07/04 08:06:24;;;;;;;;;;;;;;;20.71;69.56;102055.16;4994904;28;19992;-60
2022/07/04 08:08:50;;;;;;;;;;;;;;;20.86;71.13;102047.88;4995216;28;20365;-59
2022/07/04 08:11:16;;;;;;;;;;;;;;;21.15;72.54;102046.78;4995067;28;20325;-58
2022/07/04 08:13:41;;;;;;;;;;;;;;;21.24;71.02;102056.91;4995265;28;19909;-57
2022/07/04 08:16:07;;;;;;;;;;;;;;;21.16;71.47;102065.53;4994933;28;20370;-60
2022/07/04 08:18:32;;;;;;;;;;;;;;;21.13;70.20;102062.22;4995057;28;19913;-58
2022/07/04 08:20:58;;;;;;;;;;;;;;;20.98;67.31;102073.06;4995312;28;19953;-59
2022/07/04 08:23:24;;;;;;;;;;;;;;;20.88;67.77;102072.00;4994722;28;19910;-59
2022/07/04 08:25:49;;;;;;;;;;;;;;;20.72;69.13;102073.03;4995086;28;19909;-59
2022/07/04 08:28:14;;;;;;;;;;;;;;;20.89;68.30;102069.19;5010158;28;19913;-60
2022/07/04 08:30:40;;;;;;;;;;;;;;;20.92;67.59;102085.13;4994982;28;19920;-59
2022/07/04 08:33:05;;;;;;;;;;;;;;;21.27;66.96;102079.09;4994546;28;19909;-59
2022/07/04 08:35:30;;;;;;;;;;;;;;;21.66;65.48;102089.88;4995007;28;19976;-59
2022/07/04 08:37:55;;;;;;;;;;;;;;;21.76;63.46;102085.56;4994667;28;19910;-59
2022/07/04 08:40:25;;;;;;;;;;;;;;;21.66;62.79;102092.56;4994717;28;19925;-60
2022/07/04 08:42:50;;;;;;;;;;;;;;;21.67;62.29;102093.44;4994617;28;19932;-60
2022/07/04 08:45:16;;;;;;;;;;;;;;;21.72;63.00;102099.34;4994462;28;20381;-59
2022/07/04 08:47:42;;;;;;;;;;;;;;;22.03;59.81;102095.25;4994438;28;19914;-58
2022/07/04 08:50:10;;;;;;;;;;;;;;;22.02;59.30;102088.16;4994335;28;19917;-59
2022/07/04 08:52:42;;;;;;;;;;;;;;;22.46;59.46;102101.19;4993274;28;19965;-59
2022/07/04 09:00:37;;;;;;;;;;;;;;;22.60;57.43;102103.69;4994804;28;20235;-58
2022/07/04 09:03:03;;;;;;;;;;;;;;;22.64;61.00;102101.63;4994351;28;19918;-59
2022/07/04 09:05:29;;;;;;;;;;;;;;;22.48;60.52;102100.09;4994285;28;19922;-59
2022/07/04 09:07:54;;;;;;;;;;;;;;;22.74;58.61;102102.63;4992909;28;19917;-59
2022/07/04 09:10:21;;;;;;;;;;;;;;;22.45;54.52;102105.69;4994088;28;19914;-58
2022/07/04 09:12:46;;;;;;;;;;;;;;;22.42;56.92;102120.28;4992761;28;20064;-58
2022/07/04 09:15:11;;;;;;;;;;;;;;;22.92;53.09;102113.84;4994161;28;20406;-59
2022/07/04 09:17:37;;;;;;;;;;;;;;;22.69;53.84;102108.38;4993958;28;19928;-58
2022/07/04 09:20:11;;;;;;;;;;;;;;;22.50;54.03;102118.88;4993611;28;20057;-59
2022/07/04 09:22:36;;;;;;;;;;;;;;;23.71;51.50;102108.56;4992549;28;19910;-59
2022/07/04 09:25:03;;;;;;;;;;;;;;;24.53;51.45;102114.53;4993900;28;19921;-59
2022/07/04 09:27:29;;;;;;;;;;;;;;;24.63;46.07;102104.66;4993840;28;19956;-59
2022/07/04 09:29:54;;;;;;;;;;;;;;;24.37;45.53;102115.84;4993718;28;19913;-59
2022/07/04 09:32:24;;;;;;;;;;;;;;;24.00;47.28;102105.34;4993509;28;19920;-60
2022/07/04 09:34:55;;;;;;;;;;;;;;;24.71;45.24;102098.59;4993591;28;19914;-59
2022/07/04 09:37:20;;;;;;;;;;;;;;;24.69;45.11;102106.88;4993579;28;19968;-59
2022/07/04 09:39:45;;;;;;;;;;;;;;;25.30;43.26;102104.38;4993481;28;20337;-59
2022/07/04 09:42:10;;;;;;;;;;;;;;;26.28;41.63;102102.88;4992449;28;19917;-59
2022/07/04 09:44:50;;;;;;;;;;;;;;;26.75;39.03;102107.63;5008521;28;20340;-59
2022/07/04 09:47:23;;;;;;;;;;;;;;;26.21;39.87;102106.31;4993228;28;19917;-58
2022/07/04 09:50:01;;;;;;;;;;;;;;;25.33;41.18;102114.94;4992183;28;19981;-58
2022/07/04 09:52:29;;;;;;;;;;;;;;;25.10;43.26;102100.72;4993277;28;19910;-59
2022/07/04 09:54:59;;;;;;;;;;;;;;;25.74;40.81;102099.59;4993368;28;20036;-59
2022/07/04 09:57:24;;;;;;;;;;;;;;;26.31;42.49;102097.16;4993154;28;19953;-60
2022/07/04 09:59:49;;;;;;;;;;;;;;;25.60;40.70;102094.53;4993458;28;19949;-59
2022/07/04 10:02:15;;;;;;;;;;;;;;;24.89;39.65;102104.28;4993149;28;19996;-59
2022/07/04 10:04:44;;;;;;;;;;;;;;;24.77;41.35;102089.09;4992720;28;19960;-59
2022/07/04 10:07:10;;;;;;;;;;;;;;;25.11;41.10;102095.16;4992960;28;19996;-59
2022/07/04 10:09:35;;;;;;;;;;;;;;;24.20;42.51;102110.97;5008278;28;19952;-60
2022/07/04 10:12:01;;;;;;;;;;;;;;;23.44;45.59;102103.53;4993269;28;19909;-60
2022/07/04 10:14:27;;;;;;;;;;;;;;;24.17;44.58;102098.53;5008098;28;19918;-61
2022/07/04 10:16:52;;;;;;;;;;;;;;;24.34;42.79;102097.13;4993104;28;19924;-59
2022/07/04 10:19:19;;;;;;;;;;;;;;;25.05;43.22;102100.25;4992732;28;20255;-59
2022/07/04 10:21:45;;;;;;;;;;;;;;;25.63;39.18;102094.28;4993006;28;20385;-59
2022/07/04 10:24:11;;;;;;;;;;;;;;;25.43;39.10;102101.47;4992626;28;19914;-59
2022/07/04 10:26:36;;;;;;;;;;;;;;;25.66;39.50;102108.41;4993056;28;19963;-59
2022/07/04 10:29:01;;;;;;;;;;;;;;;26.05;35.35;102098.69;4992653;28;19910;-59
2022/07/04 10:31:28;;;;;;;;;;;;;;;25.93;36.25;102103.34;4992912;28;20004;-59
2022/07/04 10:33:54;;;;;;;;;;;;;;;26.12;37.11;102105.28;4992577;28;19909;-59
2022/07/04 10:36:21;;;;;;;;;;;;;;;25.77;37.78;102112.00;4992586;28;20266;-59
2022/07/04 10:38:58;;;;;;;;;;;;;;;25.43;39.16;102109.63;4992651;28;19910;-60
2022/07/04 10:41:26;;;;;;;;;;;;;;;25.83;40.17;102101.50;4992681;28;19910;-58
2022/07/04 10:43:52;;;;;;;;;;;;;;;26.57;38.31;102101.16;4992557;28;19945;-59
2022/07/04 10:46:33;;;;;;;;;;;;;;;26.37;34.57;102111.16;4992627;28;19952;-59
2022/07/04 10:48:59;;;;;;;;;;;;;;;25.78;36.92;102102.88;4992664;28;19910;-59
2022/07/04 10:51:34;;;;;;;;;;;;;;;26.13;36.13;102105.13;4992516;28;20325;-59
2022/07/04 10:54:02;;;;;;;;;;;;;;;26.92;38.58;102094.28;4992518;28;19910;-58
2022/07/04 10:56:27;;;;;;;;;;;;;;;27.48;35.86;102092.56;4992717;28;19988;-58
2022/07/04 10:58:54;;;;;;;;;;;;;;;28.14;32.89;102084.34;4992391;28;20068;-59
2022/07/04 11:01:19;;;;;;;;;;;;;;;27.87;33.81;102097.81;4992272;28;19925;-59
2022/07/04 11:03:49;;;;;;;;;;;;;;;27.80;36.25;102104.84;4992457;28;19917;-60
2022/07/04 11:06:29;;;;;;;;;;;;;;;27.63;33.09;102104.66;4992311;28;19924;-59
2022/07/04 11:09:13;;;;;;;;;;;;;;;27.36;35.83;102096.47;4992367;28;20400;-59
2022/07/04 11:11:50;;;;;;;;;;;;;;;27.24;34.93;102095.75;4992395;28;19949;-59
2022/07/04 11:14:29;;;;;;;;;;;;;;;27.77;33.24;102080.69;4990902;28;20291;-60
2022/07/04 11:16:54;;;;;;;;;;;;;;;27.86;34.05;102089.78;4996193;28;19914;-60
2022/07/04 11:19:19;;;;;;;;;;;;;;;27.25;33.24;102092.91;4996120;28;19921;-60
2022/07/04 11:21:45;;;;;;;;;;;;;;;26.61;36.87;102094.44;4996167;28;19917;-59
2022/07/04 11:24:10;;;;;;;;;;;;;;;26.56;35.85;102077.72;4995897;28;19949;-60
2022/07/04 11:26:35;;;;;;;;;;;;;;;26.65;37.70;102083.16;4996507;28;19914;-60
2022/07/04 11:29:01;;;;;;;;;;;;;;;26.87;34.94;102089.28;4996129;28;20357;-61
2022/07/04 11:31:40;;;;;;;;;;;;;;;27.17;35.30;102090.06;5010994;28;19914;-59
2022/07/04 11:34:05;;;;;;;;;;;;;;;27.21;34.01;102079.75;4995760;28;19909;-59
2022/07/04 11:36:31;;;;;;;;;;;;;;;27.12;33.63;102079.66;4995939;28;19960;-60
2022/07/04 11:38:57;;;;;;;;;;;;;;;26.96;33.16;102093.00;4995762;28;19918;-59
2022/07/04 11:47:19;;;;;;;;;;;;;;;26.62;34.23;102088.00;4996220;28;20380;-60
2022/07/04 11:50:09;;;;;;;;;;;;;;;25.73;37.35;102091.59;4995697;28;19909;-60
2022/07/04 11:52:37;;;;;;;;;;;;;;;25.76;37.07;102078.59;4992960;28;20000;-59
2022/07/04 11:55:02;;;;;;;;;;;;;;;26.41;35.96;102071.88;4995407;28;20376;-59
2022/07/04 11:57:29;;;;;;;;;;;;;;;27.02;36.56;102080.66;4995608;28;19996;-59
2022/07/04 11:59:59;;;;;;;;;;;;;;;27.53;33.22;102076.63;4995618;28;20009;-60
2022/07/04 12:02:25;;;;;;;;;;;;;;;27.13;34.77;102081.34;4995466;28;20281;-60
2022/07/04 12:04:51;;;;;;;;;;;;;;;27.05;34.35;102083.13;5010084;28;19952;-60
2022/07/04 12:07:18;;;;;;;;;;;;;;;26.76;35.00;102074.00;4995368;28;19957;-60
2022/07/04 12:09:44;;;;;;;;;;;;;;;27.21;34.32;102068.88;4995375;28;19933;-60
2022/07/04 12:12:09;;;;;;;;;;;;;;;27.16;37.61;102063.88;4995049;28;20000;-60
2022/07/04 12:14:35;;;;;;;;;;;;;;;27.65;33.96;102058.25;4995114;28;20001;-60
2022/07/04 12:17:19;;;;;;;;;;;;;;;27.69;33.75;102053.38;4995438;28;19909;-60
2022/07/04 12:20:01;;;;;;;;;;;;;;;26.84;34.59;102064.28;4995151;28;19917;-60
2022/07/04 12:22:27;;;;;;;;;;;;;;;26.83;34.77;102060.72;4993772;28;20289;-60
2022/07/04 12:24:53;;;;;;;;;;;;;;;26.48;35.27;102062.13;4994865;28;19964;-60
2022/07/04 12:27:18;;;;;;;;;;;;;;;26.67;35.38;102062.09;4994589;28;20278;-59
2022/07/04 12:29:47;;;;;;;;;;;;;;;26.90;34.59;102061.81;4994912;28;19960;-60
2022/07/04 12:32:14;;;;;;;;;;;;;;;27.64;36.74;102059.28;4994793;28;20001;-61
2022/07/04 12:34:39;;;;;;;;;;;;;;;27.89;32.89;102056.81;4994772;28;19921;-61
2022/07/04 12:37:07;;;;;;;;;;;;;;;27.63;32.70;102042.06;4994765;28;19909;-60
2022/07/04 12:39:33;;;;;;;;;;;;;;;27.32;33.73;102055.09;4994618;28;19916;-60
2022/07/04 12:42:06;;;;;;;;;;;;;;;27.42;34.23;102041.50;4994890;28;20000;-60
2022/07/04 12:44:31;;;;;;;;;;;;;;;27.20;33.72;102046.28;4993350;28;19917;-61
2022/07/04 12:46:57;;;;;;;;;;;;;;;26.80;34.71;102045.56;4994969;28;19910;-60
2022/07/04 12:49:22;;;;;;;;;;;;;;;27.33;33.12;102045.94;4994331;28;19960;-60